GTI3004 KLAS-KMIA
Flight info
| Callsign | GTI3004 |
|---|---|
| Flight time | N/A |
| Altitude | 37000 |
| Route | NIITZ4 SSKEE DCT INW DCT CNX DCT ABI J50 LFK DCT HRV/N0479F390 Q105 BLVNS Y290 GAWKS FROGZ4 |
| Aircraft | B744/H-SDE3FGHIM1M2RWXY/LB1 |
Departure
| Time | N/A |
|---|---|
| Airport | Harry Reid International Airport (KLAS) |
Arrival
| Time | 2026-04-30 18:11 |
|---|---|
| Airport | Miami International Airport (KMIA) |
| Time | Latitude | Longitude | Altitude | Speed | Heading |
|---|---|---|---|---|---|
| 2026-04-30 17:41 | 27.18088 | -83.08561 | 37011 ft | 445 kts | 98° |
| 2026-04-30 17:42 | 27.16837 | -83.01713 | 37013 ft | 446 kts | 99° |
| 2026-04-30 17:43 | 27.13402 | -82.84745 | 36980 ft | 448 kts | 112° |
| 2026-04-30 17:44 | 27.08946 | -82.75546 | 36989 ft | 451 kts | 123° |
| 2026-04-30 17:44 | 27.03930 | -82.66636 | 36993 ft | 449 kts | 120° |
| 2026-04-30 17:46 | 26.95293 | -82.52135 | 37013 ft | 448 kts | 135° |
| 2026-04-30 17:47 | 26.87522 | -82.41186 | 36986 ft | 449 kts | 129° |
| 2026-04-30 17:48 | 26.73073 | -82.22866 | 36985 ft | 448 kts | 132° |
| 2026-04-30 17:49 | 26.64591 | -82.12071 | 33494 ft | 493 kts | 132° |
| 2026-04-30 17:50 | 26.55674 | -82.00819 | 31479 ft | 473 kts | 133° |
| 2026-04-30 17:51 | 26.49239 | -81.92685 | 30058 ft | 458 kts | 133° |
| 2026-04-30 17:52 | 26.43013 | -81.84830 | 28343 ft | 448 kts | 133° |
| 2026-04-30 17:53 | 26.32798 | -81.71999 | 25633 ft | 436 kts | 132° |
| 2026-04-30 17:54 | 26.24825 | -81.62005 | 23667 ft | 429 kts | 132° |
| 2026-04-30 17:55 | 26.17012 | -81.52197 | 21665 ft | 416 kts | 132° |
| 2026-04-30 17:56 | 26.09692 | -81.43017 | 19871 ft | 404 kts | 132° |
| 2026-04-30 17:57 | 26.05021 | -81.35358 | 18550 ft | 396 kts | 115° |
| 2026-04-30 17:58 | 26.01603 | -81.27122 | 17176 ft | 387 kts | 115° |
| 2026-04-30 17:59 | 25.96915 | -81.16548 | 15435 ft | 376 kts | 116° |
| 2026-04-30 18:00 | 25.92403 | -81.06246 | 13819 ft | 365 kts | 116° |
| 2026-04-30 18:00 | 25.89366 | -80.98632 | 12558 ft | 357 kts | 111° |
| 2026-04-30 18:01 | 25.87458 | -80.93591 | 11731 ft | 351 kts | 113° |
| 2026-04-30 18:02 | 25.84574 | -80.86178 | 10547 ft | 344 kts | 113° |
| 2026-04-30 18:02 | 25.81792 | -80.78944 | 9433 ft | 337 kts | 113° |
| 2026-04-30 18:03 | 25.79069 | -80.71868 | 8268 ft | 327 kts | 113° |
| 2026-04-30 18:04 | 25.78504 | -80.64461 | 7259 ft | 316 kts | 87° |
| 2026-04-30 18:05 | 25.79145 | -80.55862 | 5980 ft | 239 kts | 88° |
| 2026-04-30 18:06 | 25.79296 | -80.48675 | 3474 ft | 228 kts | 90° |
| 2026-04-30 18:07 | 25.79586 | -80.42435 | 2165 ft | 186 kts | 89° |
| 2026-04-30 18:08 | 25.79746 | -80.38106 | 1670 ft | 178 kts | 89° |
| 2026-04-30 18:09 | 25.79948 | -80.33051 | 611 ft | 162 kts | 92° |
| 2026-04-30 18:10 | 25.80121 | -80.28802 | 28 ft | 63 kts | 87° |
| 2026-04-30 18:11 | 25.80397 | -80.28269 | 29 ft | 11 kts | 352° |
| 2026-04-30 18:11 | 25.80580 | -80.28251 | 27 ft | 12 kts | 349° |
| 2026-04-30 18:12 | 25.80598 | -80.28402 | 30 ft | 0 kts | 269° |